Time;durP1;ratioP1;P1;durP2;ratioP2;P2;SDS_P1;SDS_P2;PMS_P1;PMS_P2;Temp;Humidity;BMP_temperature;BMP_pressure;BME280_temperature;BME280_humidity;BME280_pressure;Samples;Min_cycle;Max_cycle;Signal;HPM_P1;HPM_P2
2023/08/24 00:04:56;;;;;;;;;;;18.00;99.90;;;;;;12234508;29;19930;-36
2023/08/24 00:10:58;;;;;;;;;;;17.60;99.90;;;;;;12226276;29;20075;-36
2023/08/24 00:17:00;;;;;;;;;;;17.50;99.90;;;;;;12228101;29;19989;-36
2023/08/24 00:23:02;;;;;;;;;;;17.30;99.90;;;;;;12226188;29;20451;-36
2023/08/24 00:29:03;;;;;;;;;;;17.40;99.90;;;;;;12227650;29;19934;-35
2023/08/24 00:35:06;;;;;;;;;;;17.70;99.90;;;;;;12227331;29;19930;-36
2023/08/24 00:41:08;;;;;;;;;;;17.70;99.90;;;;;;12228720;29;19982;-37
2023/08/24 00:47:11;;;;;;;;;;;17.90;99.90;;;;;;12220795;29;19953;-36
2023/08/24 00:53:12;;;;;;;;;;;17.80;99.90;;;;;;12227373;29;20010;-36
2023/08/24 00:59:14;;;;;;;;;;;17.70;99.90;;;;;;12226815;29;19969;-37
2023/08/24 01:05:16;;;;;;;;;;;17.60;99.90;;;;;;12226138;29;19937;-36
2023/08/24 01:11:21;;;;;;;;;;;17.60;99.90;;;;;;12229741;29;19930;-35
2023/08/24 01:17:24;;;;;;;;;;;17.40;99.90;;;;;;12231679;28;19927;-36
2023/08/24 01:23:26;;;;;;;;;;;17.50;99.90;;;;;;12224172;29;20354;-36
2023/08/24 01:29:28;;;;;;;;;;;17.60;99.90;;;;;;12228467;29;19978;-36
2023/08/24 01:35:32;;;;;;;;;;;17.70;99.90;;;;;;12223768;29;19970;-36
2023/08/24 01:41:39;;;;;;;;;;;17.50;99.90;;;;;;12220334;29;20391;-36
2023/08/24 01:47:42;;;;;;;;;;;17.40;99.90;;;;;;12220405;29;20402;-36
2023/08/24 01:53:44;;;;;;;;;;;17.40;99.90;;;;;;12222664;29;20279;-37
2023/08/24 01:59:46;;;;;;;;;;;17.30;99.90;;;;;;12225414;29;19934;-36
2023/08/24 02:05:48;;;;;;;;;;;17.00;99.90;;;;;;12225570;29;20426;-36
2023/08/24 02:11:49;;;;;;;;;;;17.10;99.90;;;;;;12224212;29;20363;-36
2023/08/24 02:17:51;;;;;;;;;;;17.00;99.90;;;;;;12226706;29;20006;-37
2023/08/24 02:23:53;;;;;;;;;;;16.90;99.90;;;;;;12228084;29;19937;-36
2023/08/24 02:29:55;;;;;;;;;;;16.90;99.90;;;;;;12246759;28;19939;-36
2023/08/24 02:35:57;;;;;;;;;;;17.00;99.90;;;;;;12235526;29;20795;-36
2023/08/24 02:41:58;;;;;;;;;;;17.00;99.90;;;;;;12238071;29;19934;-36
2023/08/24 02:48:00;;;;;;;;;;;17.20;99.90;;;;;;12234365;29;20781;-36
2023/08/24 02:54:02;;;;;;;;;;;17.40;99.90;;;;;;12236078;29;19954;-35
2023/08/24 03:00:09;;;;;;;;;;;17.50;99.90;;;;;;12236375;29;19937;-36
2023/08/24 03:06:11;;;;;;;;;;;17.50;99.90;;;;;;12234228;29;19977;-36
2023/08/24 03:12:13;;;;;;;;;;;17.40;99.90;;;;;;12227869;29;19931;-36
2023/08/24 03:18:15;;;;;;;;;;;17.50;99.90;;;;;;12236560;29;20293;-36
2023/08/24 03:24:17;;;;;;;;;;;17.40;99.90;;;;;;12231875;29;20018;-36
2023/08/24 03:30:19;;;;;;;;;;;17.40;99.90;;;;;;12233585;29;19990;-36
2023/08/24 03:36:21;;;;;;;;;;;17.40;99.90;;;;;;12226417;29;19977;-36
2023/08/24 03:42:23;;;;;;;;;;;17.30;99.90;;;;;;12225288;29;19985;-36
2023/08/24 03:48:27;;;;;;;;;;;17.40;99.90;;;;;;12228486;29;19930;-36
2023/08/24 03:54:29;;;;;;;;;;;17.40;99.90;;;;;;12228313;29;19930;-36
2023/08/24 04:00:31;;;;;;;;;;;17.20;99.90;;;;;;12227376;29;19937;-36
2023/08/24 04:06:33;;;;;;;;;;;17.20;99.90;;;;;;12228682;29;19978;-36
2023/08/24 04:12:35;;;;;;;;;;;17.00;99.90;;;;;;12226907;29;20742;-36
2023/08/24 04:18:37;;;;;;;;;;;17.10;99.90;;;;;;12226956;29;19927;-36
2023/08/24 04:24:38;;;;;;;;;;;17.20;99.90;;;;;;12227480;29;19938;-36
2023/08/24 04:30:40;;;;;;;;;;;17.20;99.90;;;;;;12235609;28;19935;-36
2023/08/24 04:36:43;;;;;;;;;;;17.20;99.90;;;;;;12219813;29;19930;-36
2023/08/24 04:42:44;;;;;;;;;;;17.10;99.90;;;;;;12228808;29;19931;-36
2023/08/24 04:48:46;;;;;;;;;;;17.10;99.90;;;;;;12224457;29;20029;-36
2023/08/24 04:54:48;;;;;;;;;;;17.40;99.90;;;;;;12226802;29;19930;-36
2023/08/24 05:00:50;;;;;;;;;;;17.70;99.90;;;;;;12225779;29;19938;-36
2023/08/24 05:06:52;;;;;;;;;;;17.20;99.90;;;;;;12224646;29;20402;-36
2023/08/24 05:12:53;;;;;;;;;;;16.80;99.90;;;;;;12226233;29;19946;-36
2023/08/24 05:18:55;;;;;;;;;;;17.00;99.90;;;;;;12225629;29;20422;-36
2023/08/24 05:24:57;;;;;;;;;;;17.00;99.90;;;;;;12225474;29;20025;-36
2023/08/24 05:30:59;;;;;;;;;;;16.90;99.90;;;;;;12223330;29;19937;-35
2023/08/24 05:37:01;;;;;;;;;;;16.70;99.90;;;;;;12219363;28;19930;-36
2023/08/24 05:43:04;;;;;;;;;;;16.60;99.90;;;;;;12221327;29;19941;-36
2023/08/24 05:49:05;;;;;;;;;;;16.70;99.90;;;;;;12216911;29;19976;-35
2023/08/24 05:55:08;;;;;;;;;;;16.60;99.90;;;;;;12226389;29;20014;-36
2023/08/24 06:01:11;;;;;;;;;;;16.50;99.90;;;;;;12230963;29;20299;-36
2023/08/24 06:07:13;;;;;;;;;;;16.60;99.90;;;;;;12230484;29;20231;-36
2023/08/24 06:13:15;;;;;;;;;;;16.80;99.90;;;;;;12229484;29;19930;-36
2023/08/24 06:19:17;;;;;;;;;;;17.00;99.90;;;;;;12225753;29;20025;-36
2023/08/24 06:25:19;;;;;;;;;;;17.10;99.90;;;;;;12225724;29;20267;-36
2023/08/24 06:31:21;;;;;;;;;;;17.40;99.90;;;;;;12234760;29;19938;-36
2023/08/24 06:37:22;;;;;;;;;;;17.60;99.90;;;;;;12232498;29;19931;-36
2023/08/24 06:43:28;;;;;;;;;;;17.80;99.90;;;;;;12232546;29;20446;-36
2023/08/24 06:49:30;;;;;;;;;;;18.00;99.90;;;;;;12231975;29;19931;-37
2023/08/24 06:55:31;;;;;;;;;;;18.20;99.90;;;;;;12233407;29;19930;-37
2023/08/24 07:01:33;;;;;;;;;;;18.30;99.90;;;;;;12229452;29;19937;-36
2023/08/24 07:07:35;;;;;;;;;;;18.30;99.90;;;;;;12231173;29;20390;-36
2023/08/24 07:13:37;;;;;;;;;;;18.30;99.90;;;;;;12233818;29;20327;-36
2023/08/24 07:19:38;;;;;;;;;;;18.40;99.90;;;;;;12229717;29;19934;-36
2023/08/24 07:25:41;;;;;;;;;;;18.40;99.90;;;;;;12228989;29;19997;-37
2023/08/24 07:31:42;;;;;;;;;;;18.50;99.90;;;;;;12229302;29;20383;-37
2023/08/24 07:37:45;;;;;;;;;;;18.30;99.90;;;;;;12222136;29;19926;-37
2023/08/24 07:43:47;;;;;;;;;;;18.50;99.90;;;;;;12226464;29;19931;-37
2023/08/24 07:49:49;;;;;;;;;;;18.30;99.90;;;;;;12228060;29;19930;-37
2023/08/24 07:55:52;;;;;;;;;;;18.80;99.90;;;;;;12225539;29;20021;-35
2023/08/24 08:01:54;;;;;;;;;;;18.80;99.90;;;;;;12228743;29;19985;-36
2023/08/24 08:07:58;;;;;;;;;;;19.10;99.90;;;;;;12226925;29;20474;-36
2023/08/24 08:14:02;;;;;;;;;;;19.40;99.90;;;;;;12223954;29;19978;-35
2023/08/24 08:20:04;;;;;;;;;;;19.50;99.90;;;;;;12225930;29;19931;-36
2023/08/24 08:26:07;;;;;;;;;;;19.80;99.90;;;;;;12222815;29;19947;-36
2023/08/24 08:32:11;;;;;;;;;;;20.00;99.90;;;;;;12229351;29;19981;-36
2023/08/24 08:38:12;;;;;;;;;;;20.20;99.90;;;;;;12245473;28;20009;-37
2023/08/24 08:44:15;;;;;;;;;;;20.50;99.90;;;;;;12224383;29;20045;-36
2023/08/24 08:50:17;;;;;;;;;;;20.80;99.90;;;;;;12227645;29;19935;-36
2023/08/24 08:56:19;;;;;;;;;;;21.10;99.90;;;;;;12227264;29;20135;-37
2023/08/24 09:02:21;;;;;;;;;;;21.30;99.90;;;;;;12227726;29;19982;-37
2023/08/24 09:08:25;;;;;;;;;;;21.70;99.90;;;;;;12227746;29;19931;-37
2023/08/24 09:14:26;;;;;;;;;;;22.10;99.90;;;;;;12221394;29;20022;-37
2023/08/24 09:20:29;;;;;;;;;;;22.30;99.90;;;;;;12227111;29;20446;-38
2023/08/24 09:26:33;;;;;;;;;;;22.80;99.90;;;;;;12227134;29;20021;-37
2023/08/24 09:32:35;;;;;;;;;;;23.00;99.90;;;;;;12219394;29;19931;-36
2023/08/24 09:38:40;;;;;;;;;;;23.60;99.90;;;;;;12222326;29;20609;-37
2023/08/24 09:44:47;;;;;;;;;;;23.70;99.90;;;;;;12218410;29;20144;-37
2023/08/24 09:50:51;;;;;;;;;;;23.60;99.90;;;;;;12222336;29;19930;-38
2023/08/24 09:56:54;;;;;;;;;;;24.10;99.90;;;;;;12221532;29;20215;-38
2023/08/24 10:02:59;;;;;;;;;;;24.50;99.90;;;;;;12221147;28;19935;-38
2023/08/24 10:09:04;;;;;;;;;;;24.90;99.90;;;;;;12221575;29;19938;-37
2023/08/24 10:15:11;;;;;;;;;;;25.00;99.90;;;;;;12220562;29;20410;-38
2023/08/24 10:21:13;;;;;;;;;;;25.00;99.90;;;;;;12220957;29;19930;-38
2023/08/24 10:27:16;;;;;;;;;;;25.00;99.90;;;;;;12218193;29;19930;-38
2023/08/24 10:33:18;;;;;;;;;;;24.70;99.90;;;;;;12218859;29;20342;-38
2023/08/24 10:39:26;;;;;;;;;;;24.90;99.90;;;;;;12227767;29;19970;-37
2023/08/24 10:45:48;;;;;;;;;;;25.10;99.90;;;;;;12230043;29;19949;-38
2023/08/24 10:51:50;;;;;;;;;;;25.40;99.90;;;;;;12234912;29;19938;-38
2023/08/24 10:57:58;;;;;;;;;;;25.60;99.90;;;;;;12232318;29;20025;-38
2023/08/24 11:04:04;;;;;;;;;;;25.70;99.90;;;;;;12234099;29;19989;-38
2023/08/24 11:10:13;;;;;;;;;;;25.80;99.90;;;;;;12236218;29;19938;-38
2023/08/24 11:16:35;;;;;;;;;;;26.00;99.90;;;;;;12231950;29;19935;-37
2023/08/24 11:22:37;;;;;;;;;;;26.40;99.90;;;;;;12235489;29;20025;-37
2023/08/24 11:28:39;;;;;;;;;;;26.40;99.90;;;;;;12231892;29;20013;-38
2023/08/24 11:34:41;;;;;;;;;;;26.30;99.90;;;;;;12226749;29;20037;-37
2023/08/24 11:40:43;;;;;;;;;;;26.30;99.90;;;;;;12224866;29;20560;-37
2023/08/24 11:46:45;;;;;;;;;;;26.50;99.90;;;;;;12226881;29;20379;-38
2023/08/24 11:52:47;;;;;;;;;;;26.30;99.90;;;;;;12225651;29;19938;-37
2023/08/24 11:58:52;;;;;;;;;;;26.50;99.90;;;;;;12219156;29;20473;-38
2023/08/24 12:04:54;;;;;;;;;;;26.60;99.90;;;;;;12230113;29;19937;-39
2023/08/24 12:10:56;;;;;;;;;;;26.80;99.90;;;;;;12225443;29;20377;-37
2023/08/24 12:16:57;;;;;;;;;;;26.60;99.90;;;;;;12230045;29;20416;-38
2023/08/24 12:23:00;;;;;;;;;;;26.50;99.90;;;;;;12225854;29;20279;-37
2023/08/24 12:29:03;;;;;;;;;;;26.20;99.90;;;;;;12224885;29;20992;-37
2023/08/24 12:35:05;;;;;;;;;;;25.90;99.90;;;;;;12219669;29;20042;-38
2023/08/24 12:41:07;;;;;;;;;;;26.10;99.90;;;;;;12233034;29;19942;-37
2023/08/24 12:47:09;;;;;;;;;;;25.90;99.90;;;;;;12230681;29;20433;-37
2023/08/24 12:53:11;;;;;;;;;;;26.10;99.90;;;;;;12234593;29;19966;-39
2023/08/24 12:59:12;;;;;;;;;;;26.40;99.90;;;;;;12232672;29;20421;-37
2023/08/24 13:05:14;;;;;;;;;;;26.70;99.90;;;;;;12231561;29;20399;-37
2023/08/24 13:11:16;;;;;;;;;;;27.10;99.90;;;;;;12227914;29;19931;-38
2023/08/24 13:17:18;;;;;;;;;;;27.40;99.90;;;;;;12228103;29;19979;-37
2023/08/24 13:23:20;;;;;;;;;;;27.40;99.90;;;;;;12227149;29;19931;-38
2023/08/24 13:29:22;;;;;;;;;;;27.30;99.90;;;;;;12228095;29;20295;-38
2023/08/24 13:35:23;;;;;;;;;;;27.10;99.90;;;;;;12229296;29;19981;-38
2023/08/24 13:41:25;;;;;;;;;;;27.10;99.90;;;;;;12226835;29;19985;-38
2023/08/24 13:47:27;;;;;;;;;;;27.10;99.90;;;;;;12228999;29;19938;-37
2023/08/24 13:53:29;;;;;;;;;;;26.90;99.90;;;;;;12226647;29;19938;-37
2023/08/24 13:59:31;;;;;;;;;;;26.70;99.90;;;;;;12227353;29;20364;-37
2023/08/24 14:05:33;;;;;;;;;;;26.60;99.90;;;;;;12227896;29;20412;-38
2023/08/24 14:11:35;;;;;;;;;;;26.50;99.90;;;;;;12224407;29;20022;-37
2023/08/24 14:17:36;;;;;;;;;;;26.40;99.90;;;;;;12235485;29;20022;-37
2023/08/24 14:23:39;;;;;;;;;;;26.50;99.90;;;;;;12233008;29;19932;-36
2023/08/24 14:29:41;;;;;;;;;;;26.60;99.90;;;;;;12229699;29;20268;-37
2023/08/24 14:35:52;;;;;;;;;;;26.40;99.90;;;;;;12233394;29;19966;-38
2023/08/24 14:41:55;;;;;;;;;;;26.30;99.90;;;;;;12237097;29;20470;-37
2023/08/24 14:47:57;;;;;;;;;;;26.10;99.90;;;;;;12227460;28;19966;-37
2023/08/24 14:53:59;;;;;;;;;;;26.00;99.90;;;;;;12232072;29;19935;-38
2023/08/24 15:00:01;;;;;;;;;;;25.90;99.90;;;;;;12227790;29;19937;-36
2023/08/24 15:06:04;;;;;;;;;;;25.70;99.90;;;;;;12232344;29;19982;-37
2023/08/24 15:12:06;;;;;;;;;;;25.40;99.90;;;;;;12230692;29;20339;-37
2023/08/24 15:18:09;;;;;;;;;;;25.40;99.90;;;;;;12231961;29;19937;-36
2023/08/24 15:24:11;;;;;;;;;;;25.30;99.90;;;;;;12231388;29;19989;-37
2023/08/24 15:30:13;;;;;;;;;;;25.20;99.90;;;;;;12231906;29;19926;-37
2023/08/24 15:36:15;;;;;;;;;;;25.00;99.90;;;;;;12232514;29;20305;-37
2023/08/24 15:42:17;;;;;;;;;;;24.80;99.90;;;;;;12236347;29;19982;-37
2023/08/24 15:48:18;;;;;;;;;;;24.60;99.90;;;;;;12234110;29;20403;-37
2023/08/24 15:54:21;;;;;;;;;;;24.60;99.90;;;;;;12235376;29;19943;-37
2023/08/24 16:00:22;;;;;;;;;;;24.60;99.90;;;;;;12236518;28;20380;-39
2023/08/24 16:06:24;;;;;;;;;;;24.60;99.90;;;;;;12230982;29;19926;-36
2023/08/24 16:12:26;;;;;;;;;;;24.60;99.90;;;;;;12225157;29;20045;-36
2023/08/24 16:18:28;;;;;;;;;;;24.60;99.90;;;;;;12225403;29;19966;-37
2023/08/24 16:24:30;;;;;;;;;;;24.60;99.90;;;;;;12228801;29;19930;-37
2023/08/24 16:30:32;;;;;;;;;;;24.50;99.90;;;;;;12231320;29;19935;-40
2023/08/24 16:36:34;;;;;;;;;;;24.40;99.90;;;;;;12230827;29;19941;-38
2023/08/24 16:42:37;;;;;;;;;;;24.40;99.90;;;;;;12228501;29;20504;-37
2023/08/24 16:48:38;;;;;;;;;;;24.30;99.90;;;;;;12221211;29;19937;-39
2023/08/24 16:54:41;;;;;;;;;;;24.30;99.90;;;;;;12226703;29;19937;-37
2023/08/24 17:00:43;;;;;;;;;;;24.30;99.90;;;;;;12228974;29;19931;-37
2023/08/24 17:06:45;;;;;;;;;;;24.30;99.90;;;;;;12240416;28;19977;-37
2023/08/24 17:12:47;;;;;;;;;;;24.30;99.90;;;;;;12226426;29;19935;-37
2023/08/24 17:18:49;;;;;;;;;;;24.20;99.90;;;;;;12226647;29;19939;-38
2023/08/24 17:24:50;;;;;;;;;;;24.20;99.90;;;;;;12223089;29;20765;-37
2023/08/24 17:30:52;;;;;;;;;;;24.10;99.90;;;;;;12224953;29;20854;-37
2023/08/24 17:36:54;;;;;;;;;;;24.00;99.90;;;;;;12226963;29;19931;-36
2023/08/24 17:42:56;;;;;;;;;;;24.00;99.90;;;;;;12225856;29;19946;-38
2023/08/24 17:48:57;;;;;;;;;;;23.90;99.90;;;;;;12235582;29;19985;-37
2023/08/24 17:55:00;;;;;;;;;;;23.80;99.90;;;;;;12232817;29;19934;-37
2023/08/24 18:01:02;;;;;;;;;;;23.80;99.90;;;;;;12237658;29;20386;-37
2023/08/24 18:07:04;;;;;;;;;;;23.70;99.90;;;;;;12235696;29;19938;-37
2023/08/24 18:13:06;;;;;;;;;;;23.70;99.90;;;;;;12229992;29;20401;-37
2023/08/24 18:19:08;;;;;;;;;;;23.70;99.90;;;;;;12231293;29;20018;-36
2023/08/24 18:25:09;;;;;;;;;;;23.70;99.90;;;;;;12229413;29;19935;-37
2023/08/24 18:31:11;;;;;;;;;;;23.70;99.90;;;;;;12233363;29;20351;-37
2023/08/24 18:37:14;;;;;;;;;;;23.60;99.90;;;;;;12235277;29;20626;-36
2023/08/24 18:43:15;;;;;;;;;;;23.60;99.90;;;;;;12233861;29;19943;-37
2023/08/24 18:49:19;;;;;;;;;;;23.60;99.90;;;;;;12240502;28;19931;-37
2023/08/24 18:55:21;;;;;;;;;;;23.50;99.90;;;;;;12231718;29;20459;-37
2023/08/24 19:01:23;;;;;;;;;;;23.40;99.90;;;;;;12227486;29;19981;-36
2023/08/24 19:07:25;;;;;;;;;;;23.40;99.90;;;;;;12239517;28;20394;-37
2023/08/24 19:13:27;;;;;;;;;;;23.30;99.90;;;;;;12230414;29;19934;-37
2023/08/24 19:19:29;;;;;;;;;;;23.20;99.90;;;;;;12229136;29;20636;-37
2023/08/24 19:25:31;;;;;;;;;;;23.10;99.90;;;;;;12231116;29;19946;-36
2023/08/24 19:31:33;;;;;;;;;;;23.00;99.90;;;;;;12219603;29;19930;-36
2023/08/24 19:37:35;;;;;;;;;;;22.90;99.90;;;;;;12228692;29;19982;-37
2023/08/24 19:43:36;;;;;;;;;;;22.80;99.90;;;;;;12228977;29;20304;-37
2023/08/24 19:49:38;;;;;;;;;;;22.80;99.90;;;;;;12229607;29;19982;-37
2023/08/24 19:55:40;;;;;;;;;;;22.80;99.90;;;;;;12229879;29;19959;-36
2023/08/24 20:01:42;;;;;;;;;;;22.70;99.90;;;;;;12221442;29;19974;-37
2023/08/24 20:07:47;;;;;;;;;;;22.70;99.90;;;;;;12226102;29;20019;-37
2023/08/24 20:13:50;;;;;;;;;;;22.70;99.90;;;;;;12226831;29;19934;-37
2023/08/24 20:19:52;;;;;;;;;;;22.70;99.90;;;;;;12232961;29;19931;-36
2023/08/24 20:25:54;;;;;;;;;;;22.60;99.90;;;;;;12229542;29;19931;-37
2023/08/24 20:31:56;;;;;;;;;;;22.50;99.90;;;;;;12228028;29;20005;-37
2023/08/24 20:37:57;;;;;;;;;;;22.40;99.90;;;;;;12228473;29;20009;-37
2023/08/24 20:43:59;;;;;;;;;;;22.30;99.90;;;;;;12227140;29;19989;-37
2023/08/24 20:50:01;;;;;;;;;;;22.20;99.90;;;;;;12224720;29;19937;-38
2023/08/24 20:56:03;;;;;;;;;;;22.10;99.90;;;;;;12225213;29;19931;-37
2023/08/24 21:02:06;;;;;;;;;;;22.10;99.90;;;;;;12229440;29;19931;-39
2023/08/24 21:08:08;;;;;;;;;;;22.10;99.90;;;;;;12225009;29;20486;-37
2023/08/24 21:14:09;;;;;;;;;;;22.10;99.90;;;;;;12226173;29;19935;-37
2023/08/24 21:20:12;;;;;;;;;;;22.10;99.90;;;;;;12228609;29;20391;-37
2023/08/24 21:26:14;;;;;;;;;;;22.00;99.90;;;;;;12226068;29;19930;-37
2023/08/24 21:32:16;;;;;;;;;;;22.00;99.90;;;;;;12224459;29;19985;-37
2023/08/24 21:38:18;;;;;;;;;;;21.90;99.90;;;;;;12228041;29;19931;-37
2023/08/24 21:44:20;;;;;;;;;;;21.90;99.90;;;;;;12226024;29;19942;-37
2023/08/24 21:50:23;;;;;;;;;;;21.90;99.90;;;;;;12229562;29;20017;-37
2023/08/24 21:56:25;;;;;;;;;;;21.80;99.90;;;;;;12226642;29;19967;-38
2023/08/24 22:02:27;;;;;;;;;;;21.70;99.90;;;;;;12224502;29;19957;-37
2023/08/24 22:08:29;;;;;;;;;;;21.60;99.90;;;;;;12223973;29;20422;-37
2023/08/24 22:14:31;;;;;;;;;;;21.50;99.90;;;;;;12224958;29;19931;-36
2023/08/24 22:20:34;;;;;;;;;;;21.40;99.90;;;;;;12224086;29;19993;-37
2023/08/24 22:26:35;;;;;;;;;;;21.40;99.90;;;;;;12225482;29;19981;-37
2023/08/24 22:32:37;;;;;;;;;;;21.30;99.90;;;;;;12228107;29;19981;-38
2023/08/24 22:38:39;;;;;;;;;;;21.40;99.90;;;;;;12233050;29;19931;-37
2023/08/24 22:44:40;;;;;;;;;;;21.40;99.90;;;;;;12233584;29;20415;-37
2023/08/24 22:50:42;;;;;;;;;;;21.40;99.90;;;;;;12231137;29;19938;-37
2023/08/24 22:56:44;;;;;;;;;;;21.50;99.90;;;;;;12233790;29;19977;-37
2023/08/24 23:02:45;;;;;;;;;;;21.40;99.90;;;;;;12231819;29;19931;-37
2023/08/24 23:08:48;;;;;;;;;;;21.30;99.90;;;;;;12234215;29;20441;-37
2023/08/24 23:14:51;;;;;;;;;;;21.10;99.90;;;;;;12233018;29;19963;-36
2023/08/24 23:20:52;;;;;;;;;;;21.10;99.90;;;;;;12231289;29;19935;-37
2023/08/24 23:26:54;;;;;;;;;;;21.00;99.90;;;;;;12246257;28;19984;-37
2023/08/24 23:32:56;;;;;;;;;;;21.00;99.90;;;;;;12228594;29;19935;-37
2023/08/24 23:38:58;;;;;;;;;;;21.10;99.90;;;;;;12229032;29;19931;-37
2023/08/24 23:44:59;;;;;;;;;;;21.10;99.90;;;;;;12228110;29;19930;-37
2023/08/24 23:51:01;;;;;;;;;;;21.10;99.90;;;;;;12230655;29;19941;-37
2023/08/24 23:57:03;;;;;;;;;;;21.10;99.90;;;;;;12231197;29;19927;-39
